sensor_id;sensor_type;location;lat;lon;timestamp;pressure;altitude;pressure_sealevel;temperature;humidity
62849;BME280;48941;49.516;8.286;2023-02-12T00:00:50;102517.72;;;5.23;94.44
62849;BME280;48941;49.516;8.286;2023-02-12T00:03:18;102523.00;;;5.23;94.75
62849;BME280;48941;49.516;8.286;2023-02-12T00:05:46;102522.16;;;5.21;94.85
62849;BME280;48941;49.516;8.286;2023-02-12T00:08:15;102517.81;;;5.20;94.90
62849;BME280;48941;49.516;8.286;2023-02-12T00:10:43;102516.13;;;5.17;95.08
62849;BME280;48941;49.516;8.286;2023-02-12T00:13:11;102514.34;;;5.18;95.21
62849;BME280;48941;49.516;8.286;2023-02-12T00:15:41;102516.13;;;5.17;95.29
62849;BME280;48941;49.516;8.286;2023-02-12T00:18:09;102513.50;;;5.16;95.40
62849;BME280;48941;49.516;8.286;2023-02-12T00:20:37;102506.44;;;5.16;95.37
62849;BME280;48941;49.516;8.286;2023-02-12T00:23:05;102508.19;;;5.17;95.29
62849;BME280;48941;49.516;8.286;2023-02-12T00:25:40;102512.63;;;5.15;95.36
62849;BME280;48941;49.516;8.286;2023-02-12T00:28:07;102504.75;;;5.14;95.91
62849;BME280;48941;49.516;8.286;2023-02-12T00:30:35;102507.38;;;5.14;95.96
62849;BME280;48941;49.516;8.286;2023-02-12T00:33:03;102500.34;;;5.13;95.92
62849;BME280;48941;49.516;8.286;2023-02-12T00:35:31;102501.28;;;5.12;95.85
62849;BME280;48941;49.516;8.286;2023-02-12T00:37:59;102507.41;;;5.12;96.20
62849;BME280;48941;49.516;8.286;2023-02-12T00:40:26;102510.06;;;5.12;96.24
62849;BME280;48941;49.516;8.286;2023-02-12T00:42:55;102515.31;;;5.14;95.90
62849;BME280;48941;49.516;8.286;2023-02-12T00:45:23;102522.41;;;5.12;96.16
62849;BME280;48941;49.516;8.286;2023-02-12T00:47:51;102524.28;;;5.07;96.51
62849;BME280;48941;49.516;8.286;2023-02-12T00:50:19;102521.59;;;5.08;96.42
62849;BME280;48941;49.516;8.286;2023-02-12T00:52:46;102520.72;;;5.09;96.14
62849;BME280;48941;49.516;8.286;2023-02-12T00:55:14;102522.47;;;5.09;96.00
62849;BME280;48941;49.516;8.286;2023-02-12T00:57:42;102526.00;;;5.09;96.55
62849;BME280;48941;49.516;8.286;2023-02-12T01:00:13;102518.97;;;5.08;96.16
62849;BME280;48941;49.516;8.286;2023-02-12T01:02:41;102529.50;;;5.10;96.42
62849;BME280;48941;49.516;8.286;2023-02-12T01:05:09;102529.50;;;5.10;96.73
62849;BME280;48941;49.516;8.286;2023-02-12T01:07:37;102532.16;;;5.08;96.91
62849;BME280;48941;49.516;8.286;2023-02-12T01:10:07;102531.31;;;5.08;96.76
62849;BME280;48941;49.516;8.286;2023-02-12T01:12:35;102523.38;;;5.08;96.34
62849;BME280;48941;49.516;8.286;2023-02-12T01:15:03;102528.69;;;5.06;95.97
62849;BME280;48941;49.516;8.286;2023-02-12T01:17:32;102526.88;;;5.08;96.34
62849;BME280;48941;49.516;8.286;2023-02-12T01:20:00;102527.81;;;5.07;96.39
62849;BME280;48941;49.516;8.286;2023-02-12T01:22:28;102537.44;;;5.08;96.28
62849;BME280;48941;49.516;8.286;2023-02-12T01:24:56;102529.53;;;5.08;96.28
62849;BME280;48941;49.516;8.286;2023-02-12T01:27:24;102536.56;;;5.09;96.26
62849;BME280;48941;49.516;8.286;2023-02-12T01:29:52;102530.38;;;5.09;95.71
62849;BME280;48941;49.516;8.286;2023-02-12T01:32:19;102527.75;;;5.09;95.93
62849;BME280;48941;49.516;8.286;2023-02-12T01:34:49;102531.28;;;5.09;96.00
62849;BME280;48941;49.516;8.286;2023-02-12T01:37:16;102521.56;;;5.10;96.35
62849;BME280;48941;49.516;8.286;2023-02-12T01:39:44;102518.97;;;5.08;96.58
62849;BME280;48941;49.516;8.286;2023-02-12T01:42:13;102520.75;;;5.06;96.39
62849;BME280;48941;49.516;8.286;2023-02-12T01:44:43;102513.72;;;5.05;96.60
62849;BME280;48941;49.516;8.286;2023-02-12T01:47:16;102525.25;;;5.03;96.54
62849;BME280;48941;49.516;8.286;2023-02-12T01:49:46;102517.31;;;5.03;96.55
62849;BME280;48941;49.516;8.286;2023-02-12T01:52:19;102516.44;;;5.04;96.39
62849;BME280;48941;49.516;8.286;2023-02-12T01:54:48;102519.94;;;5.04;96.50
62849;BME280;48941;49.516;8.286;2023-02-12T01:57:17;102519.00;;;5.05;96.62
62849;BME280;48941;49.516;8.286;2023-02-12T01:59:47;102519.94;;;5.04;96.73
62849;BME280;48941;49.516;8.286;2023-02-12T02:02:18;102516.44;;;5.04;96.07
62849;BME280;48941;49.516;8.286;2023-02-12T02:04:50;102512.97;;;5.02;95.56
62849;BME280;48941;49.516;8.286;2023-02-12T02:07:20;102514.69;;;5.03;96.00
62849;BME280;48941;49.516;8.286;2023-02-12T02:09:48;102507.63;;;5.03;96.17
62849;BME280;48941;49.516;8.286;2023-02-12T02:12:17;102514.66;;;5.04;96.23
62849;BME280;48941;49.516;8.286;2023-02-12T02:15:03;102518.25;;;5.02;95.99
62849;BME280;48941;49.516;8.286;2023-02-12T02:20:48;102512.03;;;5.03;96.22
62849;BME280;48941;49.516;8.286;2023-02-12T02:24:05;102510.31;;;5.02;96.28
62849;BME280;48941;49.516;8.286;2023-02-12T02:29:29;102512.06;;;5.01;96.78
62849;BME280;48941;49.516;8.286;2023-02-12T02:32:07;102506.84;;;4.99;96.52
62849;BME280;48941;49.516;8.286;2023-02-12T02:34:39;102504.16;;;5.01;96.43
62849;BME280;48941;49.516;8.286;2023-02-12T02:37:14;102512.03;;;5.03;96.72
62849;BME280;48941;49.516;8.286;2023-02-12T02:39:48;102512.97;;;5.02;96.55
62849;BME280;48941;49.516;8.286;2023-02-12T02:42:21;102512.13;;;4.99;96.73
62849;BME280;48941;49.516;8.286;2023-02-12T02:44:51;102509.50;;;4.99;96.71
62849;BME280;48941;49.516;8.286;2023-02-12T02:47:25;102507.72;;;5.00;96.35
62849;BME280;48941;49.516;8.286;2023-02-12T02:50:01;102509.41;;;5.03;96.39
62849;BME280;48941;49.516;8.286;2023-02-12T02:52:34;102510.34;;;5.00;96.28
62849;BME280;48941;49.516;8.286;2023-02-12T02:55:06;102514.72;;;5.01;96.38
62849;BME280;48941;49.516;8.286;2023-02-12T02:57:37;102504.16;;;5.01;96.64
62849;BME280;48941;49.516;8.286;2023-02-12T03:00:13;102504.16;;;5.01;96.75
62849;BME280;48941;49.516;8.286;2023-02-12T03:02:46;102504.22;;;4.99;96.57
62849;BME280;48941;49.516;8.286;2023-02-12T03:05:21;102495.38;;;4.99;96.66
62849;BME280;48941;49.516;8.286;2023-02-12T03:07:53;102498.09;;;4.97;96.90
62849;BME280;48941;49.516;8.286;2023-02-12T03:10:24;102501.56;;;4.99;96.57
62849;BME280;48941;49.516;8.286;2023-02-12T03:12:57;102498.94;;;4.98;96.67
62849;BME280;48941;49.516;8.286;2023-02-12T03:15:31;102498.94;;;4.98;96.35
62849;BME280;48941;49.516;8.286;2023-02-12T03:18:05;102494.50;;;5.00;96.75
62849;BME280;48941;49.516;8.286;2023-02-12T03:20:41;102504.16;;;5.01;96.96
62849;BME280;48941;49.516;8.286;2023-02-12T03:23:11;102505.06;;;5.00;96.93
62849;BME280;48941;49.516;8.286;2023-02-12T03:25:45;102505.03;;;5.02;97.00
62849;BME280;48941;49.516;8.286;2023-02-12T03:28:19;102505.03;;;5.02;97.13
62849;BME280;48941;49.516;8.286;2023-02-12T03:30:53;102500.63;;;5.02;97.22
62849;BME280;48941;49.516;8.286;2023-02-12T03:33:29;102504.13;;;5.03;97.39
62849;BME280;48941;49.516;8.286;2023-02-12T03:36:06;102502.41;;;5.02;97.73
62849;BME280;48941;49.516;8.286;2023-02-12T03:38:38;102501.50;;;5.01;97.90
62849;BME280;48941;49.516;8.286;2023-02-12T03:41:11;102497.13;;;5.02;97.90
62849;BME280;48941;49.516;8.286;2023-02-12T03:43:47;102498.84;;;5.01;98.16
62849;BME280;48941;49.516;8.286;2023-02-12T03:46:19;102505.06;;;5.00;98.47
62849;BME280;48941;49.516;8.286;2023-02-12T03:48:55;102505.03;;;5.02;98.45
62849;BME280;48941;49.516;8.286;2023-02-12T03:51:28;102501.50;;;5.01;98.47
62849;BME280;48941;49.516;8.286;2023-02-12T03:53:57;102503.25;;;5.02;98.36
62849;BME280;48941;49.516;8.286;2023-02-12T03:56:28;102498.84;;;5.01;98.28
62849;BME280;48941;49.516;8.286;2023-02-12T03:58:58;102497.13;;;5.02;98.58
62849;BME280;48941;49.516;8.286;2023-02-12T04:01:26;102505.03;;;5.02;99.04
62849;BME280;48941;49.516;8.286;2023-02-12T04:03:57;102498.84;;;5.01;99.36
62849;BME280;48941;49.516;8.286;2023-02-12T04:06:26;102502.41;;;5.02;99.29
62849;BME280;48941;49.516;8.286;2023-02-12T04:08:58;102501.56;;;4.99;99.28
62849;BME280;48941;49.516;8.286;2023-02-12T04:11:35;102507.72;;;5.00;99.72
62849;BME280;48941;49.516;8.286;2023-02-12T04:14:19;102510.34;;;5.00;99.72
62849;BME280;48941;49.516;8.286;2023-02-12T04:16:53;102514.78;;;4.99;99.56
62849;BME280;48941;49.516;8.286;2023-02-12T04:19:29;102513.88;;;4.99;99.95
62849;BME280;48941;49.516;8.286;2023-02-12T04:22:10;102515.66;;;4.98;99.98
62849;BME280;48941;49.516;8.286;2023-02-12T04:24:47;102522.72;;;4.98;100.00
62849;BME280;48941;49.516;8.286;2023-02-12T04:27:20;102515.66;;;4.98;100.00
62849;BME280;48941;49.516;8.286;2023-02-12T04:29:53;102525.38;;;4.96;100.00
62849;BME280;48941;49.516;8.286;2023-02-12T04:32:28;102533.31;;;4.96;100.00
62849;BME280;48941;49.516;8.286;2023-02-12T04:35:05;102539.53;;;4.94;100.00
62849;BME280;48941;49.516;8.286;2023-02-12T04:37:41;102529.88;;;4.93;100.00
62849;BME280;48941;49.516;8.286;2023-02-12T04:40:12;102530.81;;;4.90;100.00
62849;BME280;48941;49.516;8.286;2023-02-12T04:42:41;102530.84;;;4.89;100.00
62849;BME280;48941;49.516;8.286;2023-02-12T04:45:10;102529.13;;;4.86;100.00
62849;BME280;48941;49.516;8.286;2023-02-12T04:47:38;102527.44;;;4.84;100.00
62849;BME280;48941;49.516;8.286;2023-02-12T04:50:08;102530.13;;;4.81;100.00
62849;BME280;48941;49.516;8.286;2023-02-12T04:52:36;102524.06;;;4.77;100.00
62849;BME280;48941;49.516;8.286;2023-02-12T04:55:04;102526.78;;;4.74;100.00
62849;BME280;48941;49.516;8.286;2023-02-12T04:57:32;102520.69;;;4.70;100.00
62849;BME280;48941;49.516;8.286;2023-02-12T05:00:00;102526.91;;;4.68;100.00
62849;BME280;48941;49.516;8.286;2023-02-12T05:02:28;102522.53;;;4.65;100.00
62849;BME280;48941;49.516;8.286;2023-02-12T05:04:55;102526.22;;;4.59;100.00
62849;BME280;48941;49.516;8.286;2023-02-12T05:07:25;102515.78;;;4.53;100.00
62849;BME280;48941;49.516;8.286;2023-02-12T05:09:53;102520.28;;;4.48;100.00
62849;BME280;48941;49.516;8.286;2023-02-12T05:12:20;102516.78;;;4.46;100.00
62849;BME280;48941;49.516;8.286;2023-02-12T05:14:48;102518.59;;;4.44;100.00
62849;BME280;48941;49.516;8.286;2023-02-12T05:17:16;102521.25;;;4.43;100.00
62849;BME280;48941;49.516;8.286;2023-02-12T05:19:44;102516.94;;;4.40;100.00
62849;BME280;48941;49.516;8.286;2023-02-12T05:22:11;102522.19;;;4.40;100.00
62849;BME280;48941;49.516;8.286;2023-02-12T05:24:41;102516.94;;;4.40;100.00
62849;BME280;48941;49.516;8.286;2023-02-12T05:27:08;102516.00;;;4.41;100.00
62849;BME280;48941;49.516;8.286;2023-02-12T05:29:36;102516.06;;;4.39;100.00
62849;BME280;48941;49.516;8.286;2023-02-12T05:32:04;102517.81;;;4.39;100.00
62849;BME280;48941;49.516;8.286;2023-02-12T05:34:33;102522.19;;;4.40;100.00
62849;BME280;48941;49.516;8.286;2023-02-12T05:37:01;102518.66;;;4.41;100.00
62849;BME280;48941;49.516;8.286;2023-02-12T05:39:30;102518.63;;;4.43;100.00
62849;BME280;48941;49.516;8.286;2023-02-12T05:41:59;102519.44;;;4.46;100.00
62849;BME280;48941;49.516;8.286;2023-02-12T05:44:27;102525.53;;;4.48;100.00
62849;BME280;48941;49.516;8.286;2023-02-12T05:46:54;102528.16;;;4.50;100.00
62849;BME280;48941;49.516;8.286;2023-02-12T05:49:22;102528.13;;;4.51;100.00
62849;BME280;48941;49.516;8.286;2023-02-12T05:51:50;102524.56;;;4.54;100.00
62849;BME280;48941;49.516;8.286;2023-02-12T05:54:18;102533.31;;;4.56;100.00
62849;BME280;48941;49.516;8.286;2023-02-12T05:56:46;102531.56;;;4.55;100.00
62849;BME280;48941;49.516;8.286;2023-02-12T05:59:18;102532.41;;;4.57;100.00
62849;BME280;48941;49.516;8.286;2023-02-12T06:01:48;102535.94;;;4.57;100.00
62849;BME280;48941;49.516;8.286;2023-02-12T06:04:17;102532.41;;;4.57;100.00
62849;BME280;48941;49.516;8.286;2023-02-12T06:06:45;102531.50;;;4.58;100.00
62849;BME280;48941;49.516;8.286;2023-02-12T06:09:14;102529.75;;;4.57;100.00
62849;BME280;48941;49.516;8.286;2023-02-12T06:11:42;102533.22;;;4.59;100.00
62849;BME280;48941;49.516;8.286;2023-02-12T06:14:12;102532.38;;;4.58;100.00
62849;BME280;48941;49.516;8.286;2023-02-12T06:16:43;102531.50;;;4.58;100.00
62849;BME280;48941;49.516;8.286;2023-02-12T06:19:11;102532.44;;;4.55;100.00
62849;BME280;48941;49.516;8.286;2023-02-12T06:21:39;102528.06;;;4.54;100.00
62849;BME280;48941;49.516;8.286;2023-02-12T06:24:08;102532.47;;;4.54;100.00
62849;BME280;48941;49.516;8.286;2023-02-12T06:26:36;102536.91;;;4.52;100.00
62849;BME280;48941;49.516;8.286;2023-02-12T06:29:04;102539.59;;;4.50;100.00
62849;BME280;48941;49.516;8.286;2023-02-12T06:31:34;102540.47;;;4.49;100.00
62849;BME280;48941;49.516;8.286;2023-02-12T06:34:05;102541.41;;;4.47;100.00
62849;BME280;48941;49.516;8.286;2023-02-12T06:36:35;102545.00;;;4.43;100.00
62849;BME280;48941;49.516;8.286;2023-02-12T06:39:03;102548.59;;;4.40;100.00
62849;BME280;48941;49.516;8.286;2023-02-12T06:41:31;102549.47;;;4.39;100.00
62849;BME280;48941;49.516;8.286;2023-02-12T06:43:59;102552.16;;;4.37;100.00
62849;BME280;48941;49.516;8.286;2023-02-12T06:46:27;102556.59;;;4.35;100.00
62849;BME280;48941;49.516;8.286;2023-02-12T06:48:56;102559.28;;;4.32;100.00
62849;BME280;48941;49.516;8.286;2023-02-12T06:51:27;102564.59;;;4.31;100.00
62849;BME280;48941;49.516;8.286;2023-02-12T06:53:55;102553.19;;;4.29;100.00
62849;BME280;48941;49.516;8.286;2023-02-12T06:56:25;102555.91;;;4.26;100.00
62849;BME280;48941;49.516;8.286;2023-02-12T06:58:56;102567.31;;;4.26;100.00
62849;BME280;48941;49.516;8.286;2023-02-12T07:01:26;102568.22;;;4.25;100.00
62849;BME280;48941;49.516;8.286;2023-02-12T07:03:56;102572.56;;;4.28;100.00
62849;BME280;48941;49.516;8.286;2023-02-12T07:06:26;102573.44;;;4.28;100.00
62849;BME280;48941;49.516;8.286;2023-02-12T07:08:54;102566.41;;;4.27;100.00
62849;BME280;48941;49.516;8.286;2023-02-12T07:11:23;102571.69;;;4.27;100.00
62849;BME280;48941;49.516;8.286;2023-02-12T07:13:51;102577.00;;;4.26;100.00
62849;BME280;48941;49.516;8.286;2023-02-12T07:16:20;102578.81;;;4.24;100.00
62849;BME280;48941;49.516;8.286;2023-02-12T07:18:48;102579.69;;;4.23;100.00
62849;BME280;48941;49.516;8.286;2023-02-12T07:21:16;102576.25;;;4.19;100.00
62849;BME280;48941;49.516;8.286;2023-02-12T07:23:47;102585.03;;;4.19;100.00
62849;BME280;48941;49.516;8.286;2023-02-12T07:26:17;102584.97;;;4.23;100.00
62849;BME280;48941;49.516;8.286;2023-02-12T07:28:46;102590.22;;;4.24;100.00
62849;BME280;48941;49.516;8.286;2023-02-12T07:31:15;102591.94;;;4.25;100.00
62849;BME280;48941;49.516;8.286;2023-02-12T07:33:44;102591.03;;;4.28;100.00
62849;BME280;48941;49.516;8.286;2023-02-12T07:36:14;102593.63;;;4.29;100.00
62849;BME280;48941;49.516;8.286;2023-02-12T07:38:42;102594.44;;;4.33;100.00
62849;BME280;48941;49.516;8.286;2023-02-12T07:41:13;102587.31;;;4.38;100.00
62849;BME280;48941;49.516;8.286;2023-02-12T07:43:43;102594.25;;;4.44;100.00
62849;BME280;48941;49.516;8.286;2023-02-12T07:46:12;102596.81;;;4.48;100.00
62849;BME280;48941;49.516;8.286;2023-02-12T07:48:43;102601.16;;;4.51;100.00
62849;BME280;48941;49.516;8.286;2023-02-12T07:51:13;102597.59;;;4.53;100.00
62849;BME280;48941;49.516;8.286;2023-02-12T07:53:41;102592.25;;;4.56;100.00
62849;BME280;48941;49.516;8.286;2023-02-12T07:56:12;102596.56;;;4.59;100.00
62849;BME280;48941;49.516;8.286;2023-02-12T07:58:42;102603.50;;;4.65;100.00
62849;BME280;48941;49.516;8.286;2023-02-12T08:01:16;102592.88;;;4.69;100.00
62849;BME280;48941;49.516;8.286;2023-02-12T08:03:45;102593.63;;;4.74;100.00
62849;BME280;48941;49.516;8.286;2023-02-12T08:06:15;102595.41;;;4.74;100.00
62849;BME280;48941;49.516;8.286;2023-02-12T08:08:44;102599.78;;;4.75;100.00
62849;BME280;48941;49.516;8.286;2023-02-12T08:11:13;102604.16;;;4.77;100.00
62849;BME280;48941;49.516;8.286;2023-02-12T08:13:42;102604.16;;;4.77;100.00
62849;BME280;48941;49.516;8.286;2023-02-12T08:16:11;102609.38;;;4.79;100.00
62849;BME280;48941;49.516;8.286;2023-02-12T08:18:40;102608.50;;;4.80;100.00
62849;BME280;48941;49.516;8.286;2023-02-12T08:21:09;102601.41;;;4.82;100.00
62849;BME280;48941;49.516;8.286;2023-02-12T08:23:38;102611.00;;;4.86;100.00
62849;BME280;48941;49.516;8.286;2023-02-12T08:26:08;102603.88;;;4.91;100.00
62849;BME280;48941;49.516;8.286;2023-02-12T08:28:40;102611.72;;;4.94;100.00
62849;BME280;48941;49.516;8.286;2023-02-12T08:31:11;102605.47;;;4.98;100.00
62849;BME280;48941;49.516;8.286;2023-02-12T08:33:39;102614.09;;;5.05;100.00
62849;BME280;48941;49.516;8.286;2023-02-12T08:36:09;102609.59;;;5.10;100.00
62849;BME280;48941;49.516;8.286;2023-02-12T08:38:38;102616.56;;;5.14;100.00
62849;BME280;48941;49.516;8.286;2023-02-12T08:41:07;102611.22;;;5.17;100.00
62849;BME280;48941;49.516;8.286;2023-02-12T08:43:38;102617.25;;;5.23;100.00
62849;BME280;48941;49.516;8.286;2023-02-12T08:46:07;102610.25;;;5.22;100.00
62849;BME280;48941;49.516;8.286;2023-02-12T08:48:36;102611.00;;;5.27;100.00
62849;BME280;48941;49.516;8.286;2023-02-12T08:51:06;102616.19;;;5.31;100.00
62849;BME280;48941;49.516;8.286;2023-02-12T08:53:36;102617.91;;;5.34;100.00
62849;BME280;48941;49.516;8.286;2023-02-12T08:56:05;102625.75;;;5.37;100.00
62849;BME280;48941;49.516;8.286;2023-02-12T08:58:33;102623.88;;;5.42;100.00
62849;BME280;48941;49.516;8.286;2023-02-12T09:01:04;102615.88;;;5.45;100.00
62849;BME280;48941;49.516;8.286;2023-02-12T09:03:35;102622.91;;;5.46;100.00
62849;BME280;48941;49.516;8.286;2023-02-12T09:06:05;102621.06;;;5.50;100.00
62849;BME280;48941;49.516;8.286;2023-02-12T09:08:33;102624.44;;;5.55;100.00
62849;BME280;48941;49.516;8.286;2023-02-12T09:11:03;102625.22;;;5.60;100.00
62849;BME280;48941;49.516;8.286;2023-02-12T09:13:31;102626.03;;;5.64;100.00
62849;BME280;48941;49.516;8.286;2023-02-12T09:16:00;102625.00;;;5.69;100.00
62849;BME280;48941;49.516;8.286;2023-02-12T09:18:30;102624.91;;;5.72;100.00
62849;BME280;48941;49.516;8.286;2023-02-12T09:21:00;102631.88;;;5.76;100.00
62849;BME280;48941;49.516;8.286;2023-02-12T09:23:28;102632.72;;;5.77;100.00
62849;BME280;48941;49.516;8.286;2023-02-12T09:25:56;102625.69;;;5.77;100.00
62849;BME280;48941;49.516;8.286;2023-02-12T09:28:24;102628.28;;;5.79;100.00
62849;BME280;48941;49.516;8.286;2023-02-12T09:30:52;102633.50;;;5.82;100.00
62849;BME280;48941;49.516;8.286;2023-02-12T09:33:20;102629.03;;;5.84;100.00
62849;BME280;48941;49.516;8.286;2023-02-12T09:35:50;102637.78;;;5.88;100.00
62849;BME280;48941;49.516;8.286;2023-02-12T09:38:18;102628.00;;;5.91;100.00
62849;BME280;48941;49.516;8.286;2023-02-12T09:40:55;102632.34;;;5.95;100.00
62849;BME280;48941;49.516;8.286;2023-02-12T09:43:34;102638.41;;;5.99;100.00
62849;BME280;48941;49.516;8.286;2023-02-12T09:46:08;102637.47;;;6.02;100.00
62849;BME280;48941;49.516;8.286;2023-02-12T09:48:51;102640.03;;;6.05;100.00
62849;BME280;48941;49.516;8.286;2023-02-12T09:51:22;102640.84;;;6.07;100.00
62849;BME280;48941;49.516;8.286;2023-02-12T09:54:00;102641.69;;;6.09;100.00
62849;BME280;48941;49.516;8.286;2023-02-12T09:56:29;102640.75;;;6.11;100.00
62849;BME280;48941;49.516;8.286;2023-02-12T09:58:58;102645.97;;;6.13;100.00
62849;BME280;48941;49.516;8.286;2023-02-12T10:01:28;102630.94;;;6.15;100.00
62849;BME280;48941;49.516;8.286;2023-02-12T10:03:57;102637.03;;;6.18;100.00
62849;BME280;48941;49.516;8.286;2023-02-12T10:06:28;102633.44;;;6.21;100.00
62849;BME280;48941;49.516;8.286;2023-02-12T10:09:29;102630.69;;;6.26;100.00
62849;BME280;48941;49.516;8.286;2023-02-12T10:12:06;102636.75;;;6.29;100.00
62849;BME280;48941;49.516;8.286;2023-02-12T10:15:12;102635.63;;;6.38;100.00
62849;BME280;48941;49.516;8.286;2023-02-12T10:17:43;102630.22;;;6.43;100.00
62849;BME280;48941;49.516;8.286;2023-02-12T10:23:38;102636.22;;;6.49;100.00
62849;BME280;48941;49.516;8.286;2023-02-12T10:26:17;102631.66;;;6.54;100.00
62849;BME280;48941;49.516;8.286;2023-02-12T10:28:46;102624.47;;;6.60;100.00
62849;BME280;48941;49.516;8.286;2023-02-12T10:31:23;102623.50;;;6.62;100.00
62849;BME280;48941;49.516;8.286;2023-02-12T10:33:55;102628.66;;;6.67;100.00
62849;BME280;48941;49.516;8.286;2023-02-12T10:36:36;102625.91;;;6.71;100.00
62849;BME280;48941;49.516;8.286;2023-02-12T10:39:13;102618.78;;;6.73;100.00
62849;BME280;48941;49.516;8.286;2023-02-12T10:41:46;102619.50;;;6.78;99.83
62849;BME280;48941;49.516;8.286;2023-02-12T10:44:16;102612.34;;;6.82;99.60
62849;BME280;48941;49.516;8.286;2023-02-12T10:46:44;102609.63;;;6.85;99.75
62849;BME280;48941;49.516;8.286;2023-02-12T10:49:14;102609.50;;;6.88;99.75
62849;BME280;48941;49.516;8.286;2023-02-12T10:52:06;102602.28;;;6.95;99.25
62849;BME280;48941;49.516;8.286;2023-02-12T10:54:41;102603.00;;;7.00;99.00
62849;BME280;48941;49.516;8.286;2023-02-12T10:57:13;102607.28;;;7.04;98.70
62849;BME280;48941;49.516;8.286;2023-02-12T10:59:43;102604.47;;;7.09;98.60
62849;BME280;48941;49.516;8.286;2023-02-12T11:02:20;102604.22;;;7.18;98.18
62849;BME280;48941;49.516;8.286;2023-02-12T11:04:48;102597.09;;;7.20;98.28
62849;BME280;48941;49.516;8.286;2023-02-12T11:07:17;102598.69;;;7.26;97.91
62849;BME280;48941;49.516;8.286;2023-02-12T11:09:48;102596.75;;;7.31;97.49
62849;BME280;48941;49.516;8.286;2023-02-12T11:12:20;102598.41;;;7.35;97.55
62849;BME280;48941;49.516;8.286;2023-02-12T11:14:53;102590.28;;;7.40;97.45
62849;BME280;48941;49.516;8.286;2023-02-12T11:17:25;102582.16;;;7.46;96.93
62849;BME280;48941;49.516;8.286;2023-02-12T11:20:23;102585.31;;;7.57;95.98
62849;BME280;48941;49.516;8.286;2023-02-12T11:22:55;102581.78;;;7.56;95.61
62849;BME280;48941;49.516;8.286;2023-02-12T11:25:27;102581.75;;;7.58;95.51
62849;BME280;48941;49.516;8.286;2023-02-12T11:28:09;102568.31;;;7.63;95.87
62849;BME280;48941;49.516;8.286;2023-02-12T11:30:51;102577.97;;;7.65;95.46
62849;BME280;48941;49.516;8.286;2023-02-12T11:33:29;102570.94;;;7.64;95.89
62849;BME280;48941;49.516;8.286;2023-02-12T11:36:00;102565.47;;;7.69;95.86
62849;BME280;48941;49.516;8.286;2023-02-12T11:38:35;102567.00;;;7.76;95.71
62849;BME280;48941;49.516;8.286;2023-02-12T11:41:20;102567.78;;;7.80;95.45
62849;BME280;48941;49.516;8.286;2023-02-12T11:43:50;102565.81;;;7.85;95.15
62849;BME280;48941;49.516;8.286;2023-02-12T11:46:21;102563.94;;;7.88;94.79
62849;BME280;48941;49.516;8.286;2023-02-12T11:48:50;102559.44;;;7.90;94.90
62849;BME280;48941;49.516;8.286;2023-02-12T11:51:20;102557.56;;;7.94;94.43
62849;BME280;48941;49.516;8.286;2023-02-12T11:53:53;102555.63;;;7.99;94.72
62849;BME280;48941;49.516;8.286;2023-02-12T11:56:23;102559.00;;;8.03;93.97
62849;BME280;48941;49.516;8.286;2023-02-12T11:58:51;102557.06;;;8.08;93.91
62849;BME280;48941;49.516;8.286;2023-02-12T12:01:24;102556.97;;;8.11;93.54
62849;BME280;48941;49.516;8.286;2023-02-12T12:03:59;102552.41;;;8.14;92.90
62849;BME280;48941;49.516;8.286;2023-02-12T12:06:33;102547.03;;;8.16;93.17
62849;BME280;48941;49.516;8.286;2023-02-12T12:09:06;102542.44;;;8.21;92.91
62849;BME280;48941;49.516;8.286;2023-02-12T12:11:43;102546.78;;;8.24;92.94
62849;BME280;48941;49.516;8.286;2023-02-12T12:14:18;102541.38;;;8.27;92.86
62849;BME280;48941;49.516;8.286;2023-02-12T12:16:53;102550.19;;;8.27;92.93
62849;BME280;48941;49.516;8.286;2023-02-12T12:19:44;102539.41;;;8.32;92.12
62849;BME280;48941;49.516;8.286;2023-02-12T12:22:28;102542.81;;;8.35;91.44
62849;BME280;48941;49.516;8.286;2023-02-12T12:25:05;102539.97;;;8.40;91.50
62849;BME280;48941;49.516;8.286;2023-02-12T12:27:40;102532.00;;;8.40;91.02
62849;BME280;48941;49.516;8.286;2023-02-12T12:30:36;102533.66;;;8.44;91.05
62849;BME280;48941;49.516;8.286;2023-02-12T12:33:14;102523.84;;;8.46;90.47
62849;BME280;48941;49.516;8.286;2023-02-12T12:35:50;102525.41;;;8.52;90.31
62849;BME280;48941;49.516;8.286;2023-02-12T12:38:24;102527.03;;;8.56;90.16
62849;BME280;48941;49.516;8.286;2023-02-12T12:41:02;102522.75;;;8.52;90.26
62849;BME280;48941;49.516;8.286;2023-02-12T12:43:44;102517.41;;;8.53;90.24
62849;BME280;48941;49.516;8.286;2023-02-12T12:46:25;102518.88;;;8.61;89.94
62849;BME280;48941;49.516;8.286;2023-02-12T12:49:22;102505.53;;;8.62;88.69
62849;BME280;48941;49.516;8.286;2023-02-12T12:52:06;102508.16;;;8.64;88.44
62849;BME280;48941;49.516;8.286;2023-02-12T12:54:46;102500.97;;;8.66;88.13
62849;BME280;48941;49.516;8.286;2023-02-12T12:57:26;102500.75;;;8.72;88.42
62849;BME280;48941;49.516;8.286;2023-02-12T13:00:10;102497.03;;;8.76;88.26
62849;BME280;48941;49.516;8.286;2023-02-12T13:03:16;102496.84;;;8.81;87.63
62849;BME280;48941;49.516;8.286;2023-02-12T13:05:57;102498.59;;;8.82;86.90
62849;BME280;48941;49.516;8.286;2023-02-12T13:08:42;102492.38;;;8.83;86.83
62849;BME280;48941;49.516;8.286;2023-02-12T13:11:25;102501.16;;;8.85;87.21
62849;BME280;48941;49.516;8.286;2023-02-12T13:14:13;102490.56;;;8.83;86.69
62849;BME280;48941;49.516;8.286;2023-02-12T13:16:52;102496.75;;;8.84;86.51
62849;BME280;48941;49.516;8.286;2023-02-12T13:19:33;102491.38;;;8.85;86.75
62849;BME280;48941;49.516;8.286;2023-02-12T13:22:07;102491.19;;;8.90;86.56
62849;BME280;48941;49.516;8.286;2023-02-12T13:24:42;102496.31;;;8.94;86.80
62849;BME280;48941;49.516;8.286;2023-02-12T13:27:14;102484.63;;;8.98;86.17
62849;BME280;48941;49.516;8.286;2023-02-12T13:29:45;102489.03;;;9.00;85.96